Kwajalein/Bucholz, Marshall Islands
Current Conditions -  °F | °C
As of 4:00 PM on Tuesday 21 Oct 2014 (Local Time) from PKWA Reporting Station
Clear Clear  
Wind Chill: 29°   Ceiling: Unl
Heat Index: 34°   Visibility: 10mi
Dew Point: 25°   Wind: 13mph
Humidity: 80%   Direction: 160°SSE
Pressure: 29.75"   Gusts: NA
Location:  8.73°N, 167.73°E
Report Text: PKWA 210400Z AUTO 16011KT 10SM CLR 29/25 A2975 RMK AO2 T02870249
Loading
Personal Weather Stations






























Interactive Weather Map
Tropical Storm Tracking
New forecast layout! Learn more

10-Day Weather Forecast

Advertisements
Track Severe Weather on mobile